Time,TemperatureF,DewpointF,PressureIn,WindDirection,WindDirectionDegrees,WindSpeedMPH,WindSpeedGustMPH,Humidity,HourlyPrecipIn,Conditions,Clouds,dailyrainin,SoftwareType,DateUTC
2013-03-23 00:02:00,22.3,21.6,29.88,South,180,0.0,-999.0,97,-99.99,,,0.00,Acu-Link.com,2013-03-23 04:02:00,
2013-03-23 00:18:00,22.5,21.5,29.88,South,180,0.0,-999.0,96,-99.99,,,0.00,Acu-Link.com,2013-03-23 04:18:00,
2013-03-23 00:33:00,21.9,20.7,29.87,South,180,0.0,-999.0,95,-99.99,,,0.00,Acu-Link.com,2013-03-23 04:33:00,
2013-03-23 00:48:00,21.0,19.8,29.88,South,180,0.0,-999.0,95,-99.99,,,0.00,Acu-Link.com,2013-03-23 04:48:00,
2013-03-23 01:03:00,20.8,19.8,29.89,South,180,0.0,-999.0,96,-99.99,,,0.00,Acu-Link.com,2013-03-23 05:03:00,
2013-03-23 01:19:00,21.4,20.9,29.89,South,180,0.0,-999.0,98,-99.99,,,0.00,Acu-Link.com,2013-03-23 05:19:00,
2013-03-23 01:34:00,22.1,21.6,29.89,South,180,0.0,-999.0,98,-99.99,,,0.00,Acu-Link.com,2013-03-23 05:34:00,
2013-03-23 01:49:00,22.1,21.6,29.89,South,180,0.0,-999.0,98,-99.99,,,0.00,Acu-Link.com,2013-03-23 05:49:00,
2013-03-23 02:04:00,21.6,21.1,29.90,South,180,0.0,-999.0,98,-99.99,,,0.00,Acu-Link.com,2013-03-23 06:04:00,
2013-03-23 02:19:00,21.4,20.9,29.90,South,180,0.0,-999.0,98,-99.99,,,0.00,Acu-Link.com,2013-03-23 06:19:00,
2013-03-23 02:35:00,20.5,19.8,29.90,South,180,0.0,-999.0,97,-99.99,,,0.00,Acu-Link.com,2013-03-23 06:35:00,
2013-03-23 02:50:00,19.2,18.5,29.89,South,180,0.0,-999.0,97,-99.99,,,0.00,Acu-Link.com,2013-03-23 06:50:00,
2013-03-23 03:05:00,18.3,17.4,29.90,South,180,0.0,-999.0,96,-99.99,,,0.00,Acu-Link.com,2013-03-23 07:05:00,
2013-03-23 03:20:00,18.0,17.3,29.89,South,180,0.0,-999.0,97,-99.99,,,0.00,Acu-Link.com,2013-03-23 07:20:00,
2013-03-23 03:35:00,17.2,16.5,29.88,South,180,0.0,-999.0,97,-99.99,,,0.00,Acu-Link.com,2013-03-23 07:35:00,
2013-03-23 03:51:00,16.5,15.8,29.89,South,180,0.0,-999.0,97,-99.99,,,0.00,Acu-Link.com,2013-03-23 07:51:00,
2013-03-23 04:21:00,15.8,15.3,29.88,South,180,0.0,-999.0,98,-99.99,,,0.00,Acu-Link.com,2013-03-23 08:21:00,
2013-03-23 04:36:00,15.1,14.4,29.88,South,180,0.0,-999.0,97,-99.99,,,0.00,Acu-Link.com,2013-03-23 08:36:00,
2013-03-23 04:52:00,14.4,13.9,29.88,South,180,0.0,-999.0,98,-99.99,,,0.00,Acu-Link.com,2013-03-23 08:52:00,
2013-03-23 05:07:00,14.4,14.2,29.88,South,180,0.0,-999.0,99,-99.99,,,0.00,Acu-Link.com,2013-03-23 09:07:00,
2013-03-23 05:22:00,14.4,14.2,29.88,South,180,0.0,-999.0,99,-99.99,,,0.00,Acu-Link.com,2013-03-23 09:22:00,
2013-03-23 05:37:00,13.8,13.6,29.88,South,180,0.0,-999.0,99,-99.99,,,0.00,Acu-Link.com,2013-03-23 09:37:00,
2013-03-23 05:53:00,13.5,13.3,29.88,South,180,0.0,-999.0,99,-99.99,,,0.00,Acu-Link.com,2013-03-23 09:53:00,
2013-03-23 06:08:00,13.1,12.6,29.88,South,180,0.0,-999.0,98,-99.99,,,0.00,Acu-Link.com,2013-03-23 10:08:00,
2013-03-23 06:23:00,12.9,12.4,29.89,South,180,0.0,-999.0,98,-99.99,,,0.00,Acu-Link.com,2013-03-23 10:23:00,
2013-03-23 06:38:00,12.7,12.2,29.88,South,180,0.0,-999.0,98,-99.99,,,0.00,Acu-Link.com,2013-03-23 10:38:00,
2013-03-23 06:54:00,12.6,12.1,29.89,South,180,0.0,-999.0,98,-99.99,,,0.00,Acu-Link.com,2013-03-23 10:54:00,
2013-03-23 07:09:00,12.7,12.2,29.90,South,180,0.0,-999.0,98,-99.99,,,0.00,Acu-Link.com,2013-03-23 11:09:00,
2013-03-23 07:24:00,12.6,12.1,29.91,South,180,0.0,-999.0,98,-99.99,,,0.00,Acu-Link.com,2013-03-23 11:24:00,
2013-03-23 07:39:00,12.7,12.2,29.91,South,180,0.0,-999.0,98,-99.99,,,0.00,Acu-Link.com,2013-03-23 11:39:00,
2013-03-23 07:55:00,13.5,12.8,29.91,South,180,0.0,-999.0,97,-99.99,,,0.00,Acu-Link.com,2013-03-23 11:55:00,
2013-03-23 08:10:00,14.4,13.7,29.91,South,180,0.0,-999.0,97,-99.99,,,0.00,Acu-Link.com,2013-03-23 12:10:00,
2013-03-23 08:25:00,16.0,15.3,29.92,South,180,0.0,-999.0,97,-99.99,,,0.00,Acu-Link.com,2013-03-23 12:25:00,
2013-03-23 08:40:00,18.1,17.9,29.93,South,180,0.0,-999.0,99,-99.99,,,0.00,Acu-Link.com,2013-03-23 12:40:00,
2013-03-23 08:55:00,23.7,23.5,29.92,South,180,0.0,-999.0,99,-99.99,,,0.00,Acu-Link.com,2013-03-23 12:55:00,
2013-03-23 09:11:00,26.6,26.1,29.92,South,180,0.0,-999.0,98,-99.99,,,0.00,Acu-Link.com,2013-03-23 13:11:00,
2013-03-23 09:26:00,28.8,25.2,29.93,South,180,1.1,-999.0,86,-99.99,,,0.00,Acu-Link.com,2013-03-23 13:26:00,
2013-03-23 09:41:00,30.2,25.7,29.93,South,180,1.7,-999.0,83,-99.99,,,0.00,Acu-Link.com,2013-03-23 13:41:00,
2013-03-23 09:56:00,30.7,24.7,29.93,South,180,2.2,-999.0,78,-99.99,,,0.00,Acu-Link.com,2013-03-23 13:56:00,
2013-03-23 10:27:00,32.4,23.7,29.94,ESE,112,0.0,-999.0,70,-99.99,,,0.00,Acu-Link.com,2013-03-23 14:27:00,
2013-03-23 10:42:00,33.8,23.7,29.94,ESE,112,1.1,-999.0,66,-99.99,,,0.00,Acu-Link.com,2013-03-23 14:42:00,
2013-03-23 10:57:00,36.7,24.9,29.95,ESE,112,0.0,-999.0,62,-99.99,,,0.00,Acu-Link.com,2013-03-23 14:57:00,
2013-03-23 11:12:00,34.5,23.6,29.95,ESE,112,0.0,-999.0,64,-99.99,,,0.00,Acu-Link.com,2013-03-23 15:12:00,
2013-03-23 11:27:00,35.2,23.5,29.95,South,180,2.2,-999.0,62,-99.99,,,0.00,Acu-Link.com,2013-03-23 15:27:00,
2013-03-23 11:58:00,36.3,23.4,29.95,ESE,112,0.0,-999.0,59,-99.99,,,0.00,Acu-Link.com,2013-03-23 15:58:00,
2013-03-23 12:13:00,37.6,25.0,29.94,SSE,157,4.7,-999.0,60,-99.99,,,0.00,Acu-Link.com,2013-03-23 16:13:00,
2013-03-23 12:28:00,36.3,23.8,29.94,SE,135,2.7,-999.0,60,-99.99,,,0.00,Acu-Link.com,2013-03-23 16:28:00,
2013-03-23 12:44:00,37.2,25.0,29.93,East,90,1.1,-999.0,61,-99.99,,,0.00,Acu-Link.com,2013-03-23 16:44:00,
2013-03-23 12:59:00,37.8,24.8,29.94,South,180,1.7,-999.0,59,-99.99,,,0.00,Acu-Link.com,2013-03-23 16:59:00,
2013-03-23 13:14:00,38.5,24.6,29.94,ENE,67,2.7,-999.0,57,-99.99,,,0.00,Acu-Link.com,2013-03-23 17:14:00,
2013-03-23 13:29:00,38.3,26.0,29.94,ENE,67,1.7,-999.0,61,-99.99,,,0.00,Acu-Link.com,2013-03-23 17:29:00,
2013-03-23 13:44:00,39.4,26.3,29.93,East,90,1.1,-999.0,59,-99.99,,,0.00,Acu-Link.com,2013-03-23 17:44:00,
2013-03-23 14:00:00,41.2,28.8,29.94,ENE,67,2.7,-999.0,61,-99.99,,,0.00,Acu-Link.com,2013-03-23 18:00:00,
2013-03-23 14:15:00,39.9,27.2,29.93,South,180,2.2,-999.0,60,-99.99,,,0.00,Acu-Link.com,2013-03-23 18:15:00,
2013-03-23 14:30:00,37.9,26.8,29.93,ENE,67,2.7,-999.0,64,-99.99,,,0.00,Acu-Link.com,2013-03-23 18:30:00,
2013-03-23 14:45:00,42.1,28.8,29.93,North,0,0.0,-999.0,59,-99.99,,,0.00,Acu-Link.com,2013-03-23 18:45:00,
2013-03-23 15:00:00,38.8,27.3,29.94,ENE,67,1.1,-999.0,63,-99.99,,,0.00,Acu-Link.com,2013-03-23 19:00:00,
2013-03-23 15:16:00,41.0,29.4,29.93,ENE,67,1.7,-999.0,63,-99.99,,,0.00,Acu-Link.com,2013-03-23 19:16:00,
2013-03-23 15:46:00,38.8,26.9,29.93,ENE,67,2.7,-999.0,62,-99.99,,,0.00,Acu-Link.com,2013-03-23 19:46:00,
2013-03-23 16:01:00,42.8,28.2,29.92,East,90,2.2,-999.0,56,-99.99,,,0.00,Acu-Link.com,2013-03-23 20:01:00,
2013-03-23 16:32:00,42.4,27.8,29.92,ESE,112,3.7,-999.0,56,-99.99,,,0.00,Acu-Link.com,2013-03-23 20:32:00,
2013-03-23 17:02:00,40.8,27.2,29.94,ESE,112,2.2,-999.0,58,-99.99,,,0.00,Acu-Link.com,2013-03-23 21:02:00,
2013-03-23 17:17:00,41.0,27.4,29.94,ENE,67,1.7,-999.0,58,-99.99,,,0.00,Acu-Link.com,2013-03-23 21:17:00,
2013-03-23 17:33:00,39.2,26.1,29.93,East,90,5.3,-999.0,59,-99.99,,,0.00,Acu-Link.com,2013-03-23 21:33:00,
2013-03-23 17:48:00,39.4,26.7,29.94,ENE,67,0.0,-999.0,60,-99.99,,,0.00,Acu-Link.com,2013-03-23 21:48:00,
2013-03-23 18:03:00,38.1,25.9,29.94,East,90,2.7,-999.0,61,-99.99,,,0.00,Acu-Link.com,2013-03-23 22:03:00,
2013-03-23 18:18:00,40.3,25.9,29.94,ENE,67,4.2,-999.0,56,-99.99,,,0.00,Acu-Link.com,2013-03-23 22:18:00,
2013-03-23 18:33:00,39.6,25.6,29.93,NE,45,2.7,-999.0,57,-99.99,,,0.00,Acu-Link.com,2013-03-23 22:33:00,
2013-03-23 18:49:00,38.5,25.0,29.92,ENE,67,2.2,-999.0,58,-99.99,,,0.00,Acu-Link.com,2013-03-23 22:49:00,
2013-03-23 19:04:00,37.2,24.6,29.92,ENE,67,0.0,-999.0,60,-99.99,,,0.00,Acu-Link.com,2013-03-23 23:04:00,
2013-03-23 19:19:00,36.3,24.9,29.92,ENE,67,0.0,-999.0,63,-99.99,,,0.00,Acu-Link.com,2013-03-23 23:19:00,
2013-03-23 19:34:00,33.3,23.5,29.94,ENE,67,2.2,-999.0,67,-99.99,,,0.00,Acu-Link.com,2013-03-23 23:34:00,
2013-03-23 19:49:00,31.3,23.3,29.94,ENE,67,0.0,-999.0,72,-99.99,,,0.00,Acu-Link.com,2013-03-23 23:49:00,
2013-03-23 20:05:00,30.2,22.9,29.93,ENE,67,0.0,-999.0,74,-99.99,,,0.00,Acu-Link.com,2013-03-24 00:05:00,
2013-03-23 20:20:00,29.3,22.7,29.94,ENE,67,0.0,-999.0,76,-99.99,,,0.00,Acu-Link.com,2013-03-24 00:20:00,
2013-03-23 20:35:00,28.6,22.3,29.96,ENE,67,0.0,-999.0,77,-99.99,,,0.00,Acu-Link.com,2013-03-24 00:35:00,
2013-03-23 20:50:00,27.5,22.2,29.94,ENE,67,0.0,-999.0,80,-99.99,,,0.00,Acu-Link.com,2013-03-24 00:50:00,
2013-03-23 21:05:00,27.0,22.3,29.93,ENE,67,0.0,-999.0,82,-99.99,,,0.00,Acu-Link.com,2013-03-24 01:05:00,
2013-03-23 21:21:00,26.6,22.1,29.93,ENE,67,0.0,-999.0,83,-99.99,,,0.00,Acu-Link.com,2013-03-24 01:21:00,
2013-03-23 21:51:00,26.1,21.9,29.96,ENE,67,1.1,-999.0,84,-99.99,,,0.00,Acu-Link.com,2013-03-24 01:51:00,
2013-03-23 22:06:00,25.7,21.8,29.96,ENE,67,0.0,-999.0,85,-99.99,,,0.00,Acu-Link.com,2013-03-24 02:06:00,
2013-03-23 22:22:00,25.3,22.0,29.96,ENE,67,0.0,-999.0,87,-99.99,,,0.00,Acu-Link.com,2013-03-24 02:22:00,
2013-03-23 22:37:00,25.7,21.8,29.95,ENE,67,2.7,-999.0,85,-99.99,,,0.00,Acu-Link.com,2013-03-24 02:37:00,
2013-03-23 22:52:00,25.9,22.0,29.95,ENE,67,2.2,-999.0,85,-99.99,,,0.00,Acu-Link.com,2013-03-24 02:52:00,
2013-03-23 23:07:00,26.4,22.0,29.94,ENE,67,3.2,-999.0,83,-99.99,,,0.00,Acu-Link.com,2013-03-24 03:07:00,
2013-03-23 23:22:00,26.6,21.9,29.93,ENE,67,3.2,-999.0,82,-99.99,,,0.00,Acu-Link.com,2013-03-24 03:22:00,
2013-03-23 23:38:00,27.0,22.0,29.92,ENE,67,3.7,-999.0,81,-99.99,,,0.00,Acu-Link.com,2013-03-24 03:38:00,
2013-03-23 23:53:00,26.8,22.1,29.91,ENE,67,1.7,-999.0,82,-99.99,,,0.00,Acu-Link.com,2013-03-24 03:53:00,